X

Important NEWS



New Hub Active

Miami is our new hub! Old members can request transfer via hr@dlxairways.net

Thank you very much and have nice flight.


Deluxe Airways.

X

Tours



Hello again, we created one nice test tour for all pilots to attend. also this is ment to be testing of our tour system

Available Tours

If you find some issues please inform us.

Thank you very much and have nice flight.


Deluxe Airways.

 METAR AND TAF INFORMATION
ArrayMETAR FOR GCXO
14762226 4 GCXO 250730Z 13005KT 110V170 CAVOK 27/05 Q1017 NOSIG GCXO 2019-08-25T07:30:00Z 28.48 -16.35 27.0 5.0 130 5 6.21 30.029528 TRUE VFR METAR 632.0 GCXO 250700Z 16005KT 120V190 CAVOK 25/04 Q1017 NOSIG GCXO 2019-08-25T07:00:00Z 28.48 -16.35 25.0 4.0 160 5 6.21 30.029528 TRUE VFR METAR 632.0 GCXO 250630Z 14006KT CAVOK 26/03 Q1017 NOSIG GCXO 2019-08-25T06:30:00Z 28.48 -16.35 26.0 3.0 140 6 6.21 30.029528 TRUE VFR METAR 632.0 GCXO 250600Z 13005KT 110V170 CAVOK 27/03 Q1017 NOSIG GCXO 2019-08-25T06:00:00Z 28.48 -16.35 27.0 3.0 130 5 6.21 30.029528 TRUE VFR METAR 632.0

 AIRPORT MAP

 RUNWAY INFORMATION
Runway 12 Runway length 11155 ft Runway width 148 ft
Runway elevation 2060 ft Runway displaced threshold 0 ft Runway heading 111
Runway 30 Runway length 11155 ft Runway width 148 ft
Runway elevation 2002 ft Runway displaced threshold 0 ft Runway heading 291

 AIRPORT FREQUENCIES
Type APP Name APP Frequency 119.7 MHZ
Type ATIS Name ATIS Frequency 118.575 MHZ
Type GND Name GND Frequency 121.7 MHZ
Type TWR Name TWR Frequency 118.7 MHZ

 AIRPORT NEAR NAVIGATION AIDS
Type VOR-DME Name Tenerife Norte Frequency 117700 KHZ
Type NDB Name Tenerife Norte Frequency 410 KHZ



Powered by Virtual Airlines Manager [v2.6.2]

Template code change by DeluxeAir